sensor_id;sensor_type;location;lat;lon;timestamp;pressure;altitude;pressure_sealevel;temperature;humidity
14295;BME280;7231;59.370;18.016;2022-12-29T00:02:18;99922.97;;;1.74;100.00
14295;BME280;7231;59.370;18.016;2022-12-29T00:04:45;99970.22;;;2.07;100.00
14295;BME280;7231;59.370;18.016;2022-12-29T00:07:13;99965.94;;;2.08;100.00
14295;BME280;7231;59.370;18.016;2022-12-29T00:09:41;99970.91;;;2.03;100.00
14295;BME280;7231;59.370;18.016;2022-12-29T00:12:10;99978.88;;;2.08;100.00
14295;BME280;7231;59.370;18.016;2022-12-29T00:14:38;99983.22;;;2.09;100.00
14295;BME280;7231;59.370;18.016;2022-12-29T00:17:24;99966.53;;;2.02;100.00
14295;BME280;7231;59.370;18.016;2022-12-29T00:19:52;99980.72;;;2.10;100.00
14295;BME280;7231;59.370;18.016;2022-12-29T00:22:37;99979.03;;;2.11;100.00
14295;BME280;7231;59.370;18.016;2022-12-29T00:25:37;99973.03;;;2.12;100.00
14295;BME280;7231;59.370;18.016;2022-12-29T00:28:24;99961.38;;;2.02;100.00
14295;BME280;7231;59.370;18.016;2022-12-29T00:31:11;99971.25;;;2.11;100.00
14295;BME280;7231;59.370;18.016;2022-12-29T00:33:57;99954.56;;;2.04;100.00
14295;BME280;7231;59.370;18.016;2022-12-29T00:36:43;99928.88;;;1.89;100.00
14295;BME280;7231;59.370;18.016;2022-12-29T00:39:14;99964.31;;;2.10;100.00
14295;BME280;7231;59.370;18.016;2022-12-29T00:42:03;99960.03;;;2.10;100.00
14295;BME280;7231;59.370;18.016;2022-12-29T00:44:50;99953.97;;;2.10;100.00
14295;BME280;7231;59.370;18.016;2022-12-29T00:47:18;99962.56;;;2.09;100.00
14295;BME280;7231;59.370;18.016;2022-12-29T00:49:45;99953.09;;;2.09;100.00
14295;BME280;7231;59.370;18.016;2022-12-29T00:52:13;99952.28;;;2.10;100.00
14295;BME280;7231;59.370;18.016;2022-12-29T00:54:42;99959.22;;;2.11;100.00
14295;BME280;7231;59.370;18.016;2022-12-29T00:57:11;99912.56;;;1.90;100.00
14295;BME280;7231;59.370;18.016;2022-12-29T00:59:40;99887.84;;;1.78;100.00
14295;BME280;7231;59.370;18.016;2022-12-29T01:02:10;99943.72;;;2.11;100.00
14295;BME280;7231;59.370;18.016;2022-12-29T01:04:38;99936.69;;;2.09;100.00
14295;BME280;7231;59.370;18.016;2022-12-29T01:07:06;99937.50;;;2.08;100.00
14295;BME280;7231;59.370;18.016;2022-12-29T01:09:34;99936.63;;;2.07;100.00
14295;BME280;7231;59.370;18.016;2022-12-29T01:12:20;99930.50;;;2.05;100.00
14295;BME280;7231;59.370;18.016;2022-12-29T01:15:08;99909.91;;;1.89;100.00
14295;BME280;7231;59.370;18.016;2022-12-29T01:17:38;99922.38;;;1.98;100.00
14295;BME280;7231;59.370;18.016;2022-12-29T01:20:06;99934.78;;;2.05;100.00
14295;BME280;7231;59.370;18.016;2022-12-29T01:22:34;99932.19;;;2.05;100.00
14295;BME280;7231;59.370;18.016;2022-12-29T01:25:03;99921.03;;;2.06;100.00
14295;BME280;7231;59.370;18.016;2022-12-29T01:27:31;99930.56;;;2.07;100.00
14295;BME280;7231;59.370;18.016;2022-12-29T01:29:59;99917.41;;;2.02;100.00
14295;BME280;7231;59.370;18.016;2022-12-29T01:32:26;99882.94;;;1.84;100.00
14295;BME280;7231;59.370;18.016;2022-12-29T01:34:56;99920.44;;;2.11;100.00
14295;BME280;7231;59.370;18.016;2022-12-29T01:37:24;99913.63;;;2.13;100.00
14295;BME280;7231;59.370;18.016;2022-12-29T01:39:52;99910.25;;;2.14;100.00
14295;BME280;7231;59.370;18.016;2022-12-29T01:42:24;99908.59;;;2.16;100.00
14295;BME280;7231;59.370;18.016;2022-12-29T01:44:53;99907.88;;;2.19;100.00
14295;BME280;7231;59.370;18.016;2022-12-29T01:47:30;99894.88;;;2.17;100.00
14295;BME280;7231;59.370;18.016;2022-12-29T01:50:05;99869.41;;;2.07;100.00
14295;BME280;7231;59.370;18.016;2022-12-29T01:52:37;99898.41;;;2.19;100.00
14295;BME280;7231;59.370;18.016;2022-12-29T01:55:09;99895.00;;;2.20;100.00
14295;BME280;7231;59.370;18.016;2022-12-29T01:57:43;99890.72;;;2.21;100.00
14295;BME280;7231;59.370;18.016;2022-12-29T02:00:13;99895.06;;;2.22;100.00
14295;BME280;7231;59.370;18.016;2022-12-29T02:02:46;99890.84;;;2.24;100.00
14295;BME280;7231;59.370;18.016;2022-12-29T02:05:23;99886.56;;;2.24;100.00
14295;BME280;7231;59.370;18.016;2022-12-29T02:07:53;99883.16;;;2.25;100.00
14295;BME280;7231;59.370;18.016;2022-12-29T02:10:22;99881.47;;;2.26;100.00
14295;BME280;7231;59.370;18.016;2022-12-29T02:12:51;99884.06;;;2.26;100.00
14295;BME280;7231;59.370;18.016;2022-12-29T02:15:24;99863.00;;;2.18;100.00
14295;BME280;7231;59.370;18.016;2022-12-29T02:18:05;99860.44;;;2.18;100.00
14295;BME280;7231;59.370;18.016;2022-12-29T02:20:59;99868.53;;;2.26;100.00
14295;BME280;7231;59.370;18.016;2022-12-29T02:23:51;99862.41;;;2.24;100.00
14295;BME280;7231;59.370;18.016;2022-12-29T02:26:34;99858.13;;;2.24;100.00
14295;BME280;7231;59.370;18.016;2022-12-29T02:29:24;99821.09;;;2.06;100.00
14295;BME280;7231;59.370;18.016;2022-12-29T02:32:05;99858.19;;;2.26;100.00
14295;BME280;7231;59.370;18.016;2022-12-29T02:34:44;99837.16;;;2.18;100.00
14295;BME280;7231;59.370;18.016;2022-12-29T02:37:21;99850.56;;;2.29;100.00
14295;BME280;7231;59.370;18.016;2022-12-29T02:39:56;99852.41;;;2.32;100.00
14295;BME280;7231;59.370;18.016;2022-12-29T02:42:33;99817.97;;;2.13;100.00
14295;BME280;7231;59.370;18.016;2022-12-29T02:45:05;99807.56;;;2.12;100.00
14295;BME280;7231;59.370;18.016;2022-12-29T02:47:41;99788.22;;;2.04;100.00
14295;BME280;7231;59.370;18.016;2022-12-29T02:50:15;99832.81;;;2.37;100.00
14295;BME280;7231;59.370;18.016;2022-12-29T02:52:48;99817.84;;;2.30;100.00
14295;BME280;7231;59.370;18.016;2022-12-29T02:55:18;99829.34;;;2.36;100.00
14295;BME280;7231;59.370;18.016;2022-12-29T02:57:44;99813.47;;;2.28;100.00
14295;BME280;7231;59.370;18.016;2022-12-29T03:00:14;99830.41;;;2.41;100.00
14295;BME280;7231;59.370;18.016;2022-12-29T03:03:12;99824.56;;;2.45;100.00
14295;BME280;7231;59.370;18.016;2022-12-29T03:06:07;99810.69;;;2.43;100.00
14295;BME280;7231;59.370;18.016;2022-12-29T03:08:48;99677.28;;;1.70;100.00
14295;BME280;7231;59.370;18.016;2022-12-29T03:11:22;99817.88;;;2.50;100.00
14295;BME280;7231;59.370;18.016;2022-12-29T03:14:17;99818.63;;;2.48;100.00
14295;BME280;7231;59.370;18.016;2022-12-29T03:17:08;99826.66;;;2.54;100.00
14295;BME280;7231;59.370;18.016;2022-12-29T03:19:44;99790.41;;;2.33;100.00
14295;BME280;7231;59.370;18.016;2022-12-29T03:22:19;99820.03;;;2.60;100.00
14295;BME280;7231;59.370;18.016;2022-12-29T03:24:59;99801.63;;;2.53;100.00
14295;BME280;7231;59.370;18.016;2022-12-29T03:27:31;99811.63;;;2.66;100.00
14295;BME280;7231;59.370;18.016;2022-12-29T03:30:02;99811.78;;;2.69;100.00
14295;BME280;7231;59.370;18.016;2022-12-29T03:32:35;99805.03;;;2.73;100.00
14295;BME280;7231;59.370;18.016;2022-12-29T03:35:07;99796.56;;;2.77;100.00
14295;BME280;7231;59.370;18.016;2022-12-29T03:37:39;99787.97;;;2.78;100.00
14295;BME280;7231;59.370;18.016;2022-12-29T03:40:08;99798.47;;;2.81;100.00
14295;BME280;7231;59.370;18.016;2022-12-29T03:42:39;99748.09;;;2.52;100.00
14295;BME280;7231;59.370;18.016;2022-12-29T03:45:09;99795.06;;;2.82;100.00
14295;BME280;7231;59.370;18.016;2022-12-29T03:47:37;99734.34;;;2.53;100.00
14295;BME280;7231;59.370;18.016;2022-12-29T03:50:07;99749.59;;;2.68;100.00
14295;BME280;7231;59.370;18.016;2022-12-29T03:52:36;99739.06;;;2.63;100.00
14295;BME280;7231;59.370;18.016;2022-12-29T03:55:04;99779.72;;;2.86;100.00
14295;BME280;7231;59.370;18.016;2022-12-29T03:57:32;99776.25;;;2.86;100.00
14295;BME280;7231;59.370;18.016;2022-12-29T04:00:00;99762.41;;;2.85;100.00
14295;BME280;7231;59.370;18.016;2022-12-29T04:02:29;99730.72;;;2.70;100.00
14295;BME280;7231;59.370;18.016;2022-12-29T04:04:57;99737.84;;;2.76;100.00
14295;BME280;7231;59.370;18.016;2022-12-29T04:07:26;99715.66;;;2.60;100.00
14295;BME280;7231;59.370;18.016;2022-12-29T04:09:54;99738.59;;;2.73;100.00
14295;BME280;7231;59.370;18.016;2022-12-29T04:12:22;99743.22;;;2.80;100.00
14295;BME280;7231;59.370;18.016;2022-12-29T04:14:50;99736.41;;;2.82;100.00
14295;BME280;7231;59.370;18.016;2022-12-29T04:17:18;99739.13;;;2.85;100.00
14295;BME280;7231;59.370;18.016;2022-12-29T04:19:46;99733.19;;;2.88;100.00
14295;BME280;7231;59.370;18.016;2022-12-29T04:22:14;99725.47;;;2.89;100.00
14295;BME280;7231;59.370;18.016;2022-12-29T04:24:45;99732.53;;;2.93;100.00
14295;BME280;7231;59.370;18.016;2022-12-29T04:27:13;99736.13;;;2.97;100.00
14295;BME280;7231;59.370;18.016;2022-12-29T04:29:41;99720.78;;;3.02;100.00
14295;BME280;7231;59.370;18.016;2022-12-29T04:32:09;99720.91;;;3.05;100.00
14295;BME280;7231;59.370;18.016;2022-12-29T04:34:37;99722.69;;;3.06;100.00
14295;BME280;7231;59.370;18.016;2022-12-29T04:37:05;99722.78;;;3.09;100.00
14295;BME280;7231;59.370;18.016;2022-12-29T04:39:33;99717.81;;;3.13;100.00
14295;BME280;7231;59.370;18.016;2022-12-29T04:42:02;99709.22;;;3.14;100.00
14295;BME280;7231;59.370;18.016;2022-12-29T04:44:30;99703.09;;;3.12;100.00
14295;BME280;7231;59.370;18.016;2022-12-29T04:46:58;99710.28;;;3.19;100.00
14295;BME280;7231;59.370;18.016;2022-12-29T04:49:26;99713.88;;;3.23;100.00
14295;BME280;7231;59.370;18.016;2022-12-29T04:51:54;99715.69;;;3.25;100.00
14295;BME280;7231;59.370;18.016;2022-12-29T04:54:22;99701.09;;;3.28;100.00
14295;BME280;7231;59.370;18.016;2022-12-29T04:56:50;99697.75;;;3.30;100.00
14295;BME280;7231;59.370;18.016;2022-12-29T04:59:19;99705.56;;;3.32;100.00
14295;BME280;7231;59.370;18.016;2022-12-29T05:01:47;99687.03;;;3.21;100.00
14295;BME280;7231;59.370;18.016;2022-12-29T05:04:15;99687.50;;;3.33;100.00
14295;BME280;7231;59.370;18.016;2022-12-29T05:06:43;99684.97;;;3.35;100.00
14295;BME280;7231;59.370;18.016;2022-12-29T05:09:10;99645.22;;;3.12;100.00
14295;BME280;7231;59.370;18.016;2022-12-29T05:11:38;99680.66;;;3.35;100.00
14295;BME280;7231;59.370;18.016;2022-12-29T05:14:06;99678.13;;;3.37;100.00
14295;BME280;7231;59.370;18.016;2022-12-29T05:16:35;99669.53;;;3.38;100.00
14295;BME280;7231;59.370;18.016;2022-12-29T05:19:03;99589.91;;;2.87;100.00
14295;BME280;7231;59.370;18.016;2022-12-29T05:21:31;99667.81;;;3.38;100.00
14295;BME280;7231;59.370;18.016;2022-12-29T05:23:59;99679.94;;;3.39;100.00
14295;BME280;7231;59.370;18.016;2022-12-29T05:26:27;99680.84;;;3.40;100.00
14295;BME280;7231;59.370;18.016;2022-12-29T05:28:55;99668.75;;;3.40;100.00
14295;BME280;7231;59.370;18.016;2022-12-29T05:31:23;99659.94;;;3.35;100.00
14295;BME280;7231;59.370;18.016;2022-12-29T05:33:52;99668.88;;;3.43;100.00
14295;BME280;7231;59.370;18.016;2022-12-29T05:36:20;99668.88;;;3.43;100.00
14295;BME280;7231;59.370;18.016;2022-12-29T05:38:48;99661.94;;;3.42;100.00
14295;BME280;7231;59.370;18.016;2022-12-29T05:41:16;99668.00;;;3.43;100.00
14295;BME280;7231;59.370;18.016;2022-12-29T05:43:44;99605.69;;;3.16;100.00
14295;BME280;7231;59.370;18.016;2022-12-29T05:46:12;99659.41;;;3.44;100.00
14295;BME280;7231;59.370;18.016;2022-12-29T05:48:40;99654.22;;;3.44;100.00
14295;BME280;7231;59.370;18.016;2022-12-29T05:51:09;99658.50;;;3.43;100.00
14295;BME280;7231;59.370;18.016;2022-12-29T05:53:37;99634.16;;;3.38;100.00
14295;BME280;7231;59.370;18.016;2022-12-29T05:56:05;99643.97;;;3.47;100.00
14295;BME280;7231;59.370;18.016;2022-12-29T05:58:33;99637.97;;;3.48;100.00
14295;BME280;7231;59.370;18.016;2022-12-29T06:01:01;99618.59;;;3.38;100.00
14295;BME280;7231;59.370;18.016;2022-12-29T06:03:29;99637.13;;;3.49;100.00
14295;BME280;7231;59.370;18.016;2022-12-29T06:05:57;99619.59;;;3.42;100.00
14295;BME280;7231;59.370;18.016;2022-12-29T06:08:27;99625.16;;;3.52;100.00
14295;BME280;7231;59.370;18.016;2022-12-29T06:10:55;99623.50;;;3.54;100.00
14295;BME280;7231;59.370;18.016;2022-12-29T06:13:23;99617.41;;;3.52;100.00
14295;BME280;7231;59.370;18.016;2022-12-29T06:15:51;99618.44;;;3.57;100.00
14295;BME280;7231;59.370;18.016;2022-12-29T06:18:19;99611.56;;;3.58;100.00
14295;BME280;7231;59.370;18.016;2022-12-29T06:20:48;99616.84;;;3.61;100.00
14295;BME280;7231;59.370;18.016;2022-12-29T06:23:16;99610.78;;;3.61;100.00
14295;BME280;7231;59.370;18.016;2022-12-29T06:25:47;99610.78;;;3.61;100.00
14295;BME280;7231;59.370;18.016;2022-12-29T06:28:16;99608.25;;;3.62;100.00
14295;BME280;7231;59.370;18.016;2022-12-29T06:30:44;99610.06;;;3.65;100.00
14295;BME280;7231;59.370;18.016;2022-12-29T06:33:12;99600.63;;;3.67;100.00
14295;BME280;7231;59.370;18.016;2022-12-29T06:35:41;99586.63;;;3.62;100.00
14295;BME280;7231;59.370;18.016;2022-12-29T06:38:09;99586.91;;;3.69;100.00
14295;BME280;7231;59.370;18.016;2022-12-29T06:40:37;99595.59;;;3.71;100.00
14295;BME280;7231;59.370;18.016;2022-12-29T06:43:07;99592.19;;;3.72;100.00
14295;BME280;7231;59.370;18.016;2022-12-29T06:45:37;99596.53;;;3.73;100.00
14295;BME280;7231;59.370;18.016;2022-12-29T06:48:06;99541.25;;;3.49;100.00
14295;BME280;7231;59.370;18.016;2022-12-29T06:50:34;99586.34;;;3.78;100.00
14295;BME280;7231;59.370;18.016;2022-12-29T06:53:02;99575.75;;;3.72;100.00
14295;BME280;7231;59.370;18.016;2022-12-29T06:55:30;99599.41;;;3.81;100.00
14295;BME280;7231;59.370;18.016;2022-12-29T06:57:58;99584.34;;;3.71;100.00
14295;BME280;7231;59.370;18.016;2022-12-29T07:00:28;99603.81;;;3.83;100.00
14295;BME280;7231;59.370;18.016;2022-12-29T07:02:56;99596.09;;;3.85;100.00
14295;BME280;7231;59.370;18.016;2022-12-29T07:05:26;99567.00;;;3.68;100.00
14295;BME280;7231;59.370;18.016;2022-12-29T07:07:54;99589.25;;;3.87;100.00
14295;BME280;7231;59.370;18.016;2022-12-29T07:10:22;99583.22;;;3.88;100.00
14295;BME280;7231;59.370;18.016;2022-12-29T07:12:50;99568.56;;;3.88;100.00
14295;BME280;7231;59.370;18.016;2022-12-29T07:15:18;99582.47;;;3.90;100.00
14295;BME280;7231;59.370;18.016;2022-12-29T07:17:48;99566.94;;;3.92;100.00
14295;BME280;7231;59.370;18.016;2022-12-29T07:20:17;99548.66;;;3.87;100.00
14295;BME280;7231;59.370;18.016;2022-12-29T07:22:52;99542.47;;;3.84;100.00
14295;BME280;7231;59.370;18.016;2022-12-29T07:25:20;99543.41;;;3.86;100.00
14295;BME280;7231;59.370;18.016;2022-12-29T07:27:48;99554.13;;;3.97;100.00
14295;BME280;7231;59.370;18.016;2022-12-29T07:30:16;99549.00;;;3.98;100.00
14295;BME280;7231;59.370;18.016;2022-12-29T07:32:44;99554.25;;;4.00;100.00
14295;BME280;7231;59.370;18.016;2022-12-29T07:35:13;99488.34;;;3.68;100.00
14295;BME280;7231;59.370;18.016;2022-12-29T07:37:43;99545.69;;;4.02;100.00
14295;BME280;7231;59.370;18.016;2022-12-29T07:40:11;99536.19;;;4.03;100.00
14295;BME280;7231;59.370;18.016;2022-12-29T07:42:39;99516.91;;;3.95;100.00
14295;BME280;7231;59.370;18.016;2022-12-29T07:45:08;99531.06;;;4.04;100.00
14295;BME280;7231;59.370;18.016;2022-12-29T07:47:36;99530.16;;;4.04;100.00
14295;BME280;7231;59.370;18.016;2022-12-29T07:50:05;99532.81;;;4.05;100.00
14295;BME280;7231;59.370;18.016;2022-12-29T07:52:35;99516.44;;;4.06;100.00
14295;BME280;7231;59.370;18.016;2022-12-29T07:55:03;99518.19;;;4.07;100.00
14295;BME280;7231;59.370;18.016;2022-12-29T07:57:31;99512.16;;;4.08;100.00
14295;BME280;7231;59.370;18.016;2022-12-29T07:59:59;99517.34;;;4.08;100.00
14295;BME280;7231;59.370;18.016;2022-12-29T08:02:27;99508.69;;;4.08;100.00
14295;BME280;7231;59.370;18.016;2022-12-29T08:04:56;99485.00;;;3.97;100.00
14295;BME280;7231;59.370;18.016;2022-12-29T08:07:24;99493.13;;;4.08;100.00
14295;BME280;7231;59.370;18.016;2022-12-29T08:09:53;99486.22;;;4.08;100.00
14295;BME280;7231;59.370;18.016;2022-12-29T08:12:21;99488.00;;;4.09;100.00
14295;BME280;7231;59.370;18.016;2022-12-29T08:14:49;99476.78;;;4.10;100.00
14295;BME280;7231;59.370;18.016;2022-12-29T08:17:17;99482.84;;;4.11;100.00
14295;BME280;7231;59.370;18.016;2022-12-29T08:19:45;99484.63;;;4.12;100.00
14295;BME280;7231;59.370;18.016;2022-12-29T08:22:13;99491.56;;;4.13;100.00
14295;BME280;7231;59.370;18.016;2022-12-29T08:24:41;99388.09;;;3.67;100.00
14295;BME280;7231;59.370;18.016;2022-12-29T08:27:10;99473.47;;;4.14;100.00
14295;BME280;7231;59.370;18.016;2022-12-29T08:29:46;99487.31;;;4.15;100.00
14295;BME280;7231;59.370;18.016;2022-12-29T08:32:14;99472.66;;;4.17;100.00
14295;BME280;7231;59.370;18.016;2022-12-29T08:34:42;99474.38;;;4.16;100.00
14295;BME280;7231;59.370;18.016;2022-12-29T08:37:10;99468.41;;;4.19;100.00
14295;BME280;7231;59.370;18.016;2022-12-29T08:39:38;99349.47;;;3.47;100.00
14295;BME280;7231;59.370;18.016;2022-12-29T08:42:06;99473.59;;;4.19;100.00
14295;BME280;7231;59.370;18.016;2022-12-29T08:44:36;99470.13;;;4.18;100.00
14295;BME280;7231;59.370;18.016;2022-12-29T08:47:04;99470.22;;;4.21;100.00
14295;BME280;7231;59.370;18.016;2022-12-29T08:49:31;99465.91;;;4.22;100.00
14295;BME280;7231;59.370;18.016;2022-12-29T08:52:00;99435.13;;;4.06;100.00
14295;BME280;7231;59.370;18.016;2022-12-29T08:54:28;99464.19;;;4.22;100.00
14295;BME280;7231;59.370;18.016;2022-12-29T08:56:55;99431.66;;;4.05;100.00
14295;BME280;7231;59.370;18.016;2022-12-29T08:59:23;99458.19;;;4.23;100.00
14295;BME280;7231;59.370;18.016;2022-12-29T09:01:53;99437.34;;;4.20;100.00
14295;BME280;7231;59.370;18.016;2022-12-29T09:04:22;99449.56;;;4.24;100.00
14295;BME280;7231;59.370;18.016;2022-12-29T09:06:50;99446.09;;;4.24;100.00
14295;BME280;7231;59.370;18.016;2022-12-29T09:09:19;99430.56;;;4.26;100.00
14295;BME280;7231;59.370;18.016;2022-12-29T09:11:46;99359.38;;;3.87;100.00
14295;BME280;7231;59.370;18.016;2022-12-29T09:14:14;99415.94;;;4.28;100.00
14295;BME280;7231;59.370;18.016;2022-12-29T09:16:42;99421.22;;;4.31;100.00
14295;BME280;7231;59.370;18.016;2022-12-29T09:19:30;99403.13;;;4.34;100.00
14295;BME280;7231;59.370;18.016;2022-12-29T09:21:58;99403.13;;;4.34;100.00
14295;BME280;7231;59.370;18.016;2022-12-29T09:24:25;99398.78;;;4.33;100.00
14295;BME280;7231;59.370;18.016;2022-12-29T09:26:53;99406.75;;;4.39;100.00
14295;BME280;7231;59.370;18.016;2022-12-29T09:29:21;99394.66;;;4.39;100.00
14295;BME280;7231;59.370;18.016;2022-12-29T09:31:49;99392.16;;;4.42;100.00
14295;BME280;7231;59.370;18.016;2022-12-29T09:34:18;99386.13;;;4.43;100.00
14295;BME280;7231;59.370;18.016;2022-12-29T09:36:47;99389.66;;;4.45;100.00
14295;BME280;7231;59.370;18.016;2022-12-29T09:39:15;99388.84;;;4.48;100.00
14295;BME280;7231;59.370;18.016;2022-12-29T09:41:45;99377.63;;;4.49;100.00
14295;BME280;7231;59.370;18.016;2022-12-29T09:44:21;99377.72;;;4.52;100.00
14295;BME280;7231;59.370;18.016;2022-12-29T09:46:53;99355.25;;;4.52;100.00
14295;BME280;7231;59.370;18.016;2022-12-29T09:49:26;99233.91;;;3.82;100.00
14295;BME280;7231;59.370;18.016;2022-12-29T09:52:02;99358.81;;;4.56;100.00
14295;BME280;7231;59.370;18.016;2022-12-29T09:54:40;99227.25;;;3.90;100.00
14295;BME280;7231;59.370;18.016;2022-12-29T09:57:21;99339.06;;;4.61;100.00
14295;BME280;7231;59.370;18.016;2022-12-29T09:59:55;99318.91;;;4.52;100.00
14295;BME280;7231;59.370;18.016;2022-12-29T10:02:31;99297.19;;;4.49;100.00
14295;BME280;7231;59.370;18.016;2022-12-29T10:05:00;99318.50;;;4.69;100.00
14295;BME280;7231;59.370;18.016;2022-12-29T10:07:36;99305.38;;;4.64;100.00
14295;BME280;7231;59.370;18.016;2022-12-29T10:10:23;99322.97;;;4.74;100.00
14295;BME280;7231;59.370;18.016;2022-12-29T10:13:07;99314.34;;;4.75;100.00
14295;BME280;7231;59.370;18.016;2022-12-29T10:15:52;99309.28;;;4.80;100.00
14295;BME280;7231;59.370;18.016;2022-12-29T10:18:44;99307.59;;;4.82;100.00
14295;BME280;7231;59.370;18.016;2022-12-29T10:21:25;99302.44;;;4.83;100.00
14295;BME280;7231;59.370;18.016;2022-12-29T10:23:56;99308.56;;;4.85;100.00
14295;BME280;7231;59.370;18.016;2022-12-29T10:26:27;99287.78;;;4.85;100.00
14295;BME280;7231;59.370;18.016;2022-12-29T10:28:59;99280.03;;;4.87;100.00
14295;BME280;7231;59.370;18.016;2022-12-29T10:31:34;99262.50;;;4.78;100.00
14295;BME280;7231;59.370;18.016;2022-12-29T10:34:10;99277.47;;;4.88;100.00
14295;BME280;7231;59.370;18.016;2022-12-29T10:36:43;99260.91;;;4.83;100.00
14295;BME280;7231;59.370;18.016;2022-12-29T10:39:28;99260.09;;;4.86;100.00
14295;BME280;7231;59.370;18.016;2022-12-29T10:42:04;99259.34;;;4.90;100.00
14295;BME280;7231;59.370;18.016;2022-12-29T10:44:35;99264.59;;;4.93;100.00
14295;BME280;7231;59.370;18.016;2022-12-29T10:47:05;99258.56;;;4.94;100.00
14295;BME280;7231;59.370;18.016;2022-12-29T10:49:38;99218.34;;;4.78;100.00
14295;BME280;7231;59.370;18.016;2022-12-29T10:52:08;99250.88;;;4.99;100.00
14295;BME280;7231;59.370;18.016;2022-12-29T10:54:42;99197.50;;;4.75;100.00
14295;BME280;7231;59.370;18.016;2022-12-29T10:57:20;99173.13;;;4.69;100.00
14295;BME280;7231;59.370;18.016;2022-12-29T10:59:52;99221.56;;;5.03;100.00
14295;BME280;7231;59.370;18.016;2022-12-29T11:02:31;99234.63;;;5.06;100.00
14295;BME280;7231;59.370;18.016;2022-12-29T11:05:10;99198.03;;;4.97;100.00
14295;BME280;7231;59.370;18.016;2022-12-29T11:07:42;99206.09;;;5.07;100.00
14295;BME280;7231;59.370;18.016;2022-12-29T11:10:20;99200.91;;;5.09;100.00
14295;BME280;7231;59.370;18.016;2022-12-29T11:12:59;99196.47;;;5.03;100.00
14295;BME280;7231;59.370;18.016;2022-12-29T11:15:28;99199.22;;;5.11;100.00
14295;BME280;7231;59.370;18.016;2022-12-29T11:18:17;99192.34;;;5.13;100.00
14295;BME280;7231;59.370;18.016;2022-12-29T11:20:46;99195.00;;;5.14;100.00
14295;BME280;7231;59.370;18.016;2022-12-29T11:23:26;99194.16;;;5.15;100.00
14295;BME280;7231;59.370;18.016;2022-12-29T11:26:12;99196.75;;;5.15;100.00
14295;BME280;7231;59.370;18.016;2022-12-29T11:28:42;99159.31;;;5.07;100.00
14295;BME280;7231;59.370;18.016;2022-12-29T11:31:15;99178.63;;;5.18;100.00
14295;BME280;7231;59.370;18.016;2022-12-29T11:33:44;99175.19;;;5.19;100.00
14295;BME280;7231;59.370;18.016;2022-12-29T11:36:15;99170.03;;;5.22;100.00
14295;BME280;7231;59.370;18.016;2022-12-29T11:38:47;99160.47;;;5.21;100.00
14295;BME280;7231;59.370;18.016;2022-12-29T11:41:22;99156.19;;;5.23;100.00
14295;BME280;7231;59.370;18.016;2022-12-29T11:43:52;99156.22;;;5.25;100.00
14295;BME280;7231;59.370;18.016;2022-12-29T11:46:24;99148.50;;;5.28;100.00
14295;BME280;7231;59.370;18.016;2022-12-29T11:48:53;99121.50;;;5.21;100.00
14295;BME280;7231;59.370;18.016;2022-12-29T11:51:27;99134.66;;;5.29;100.00
14295;BME280;7231;59.370;18.016;2022-12-29T11:53:57;99119.91;;;5.28;100.00
14295;BME280;7231;59.370;18.016;2022-12-29T11:56:35;99127.75;;;5.30;100.00
14295;BME280;7231;59.370;18.016;2022-12-29T11:59:34;99118.22;;;5.30;100.00
14295;BME280;7231;59.370;18.016;2022-12-29T12:02:39;99104.38;;;5.30;100.00
14295;BME280;7231;59.370;18.016;2022-12-29T12:05:14;99070.19;;;5.10;100.00
14295;BME280;7231;59.370;18.016;2022-12-29T12:07:46;99090.53;;;5.31;100.00
14295;BME280;7231;59.370;18.016;2022-12-29T12:10:21;99091.44;;;5.33;100.00
14295;BME280;7231;59.370;18.016;2022-12-29T12:12:58;99080.16;;;5.32;100.00
14295;BME280;7231;59.370;18.016;2022-12-29T12:15:36;99085.34;;;5.32;100.00
14295;BME280;7231;59.370;18.016;2022-12-29T12:18:17;99077.56;;;5.32;100.00
14295;BME280;7231;59.370;18.016;2022-12-29T12:20:50;99071.44;;;5.29;100.00
14295;BME280;7231;59.370;18.016;2022-12-29T12:23:27;99060.00;;;5.19;100.00
14295;BME280;7231;59.370;18.016;2022-12-29T12:26:03;99088.84;;;5.33;100.00
14295;BME280;7231;59.370;18.016;2022-12-29T12:28:39;99087.13;;;5.33;100.00
14295;BME280;7231;59.370;18.016;2022-12-29T12:31:17;99072.41;;;5.34;100.00
14295;BME280;7231;59.370;18.016;2022-12-29T12:33:50;99070.69;;;5.34;100.00
14295;BME280;7231;59.370;18.016;2022-12-29T12:36:31;99070.69;;;5.34;100.00
14295;BME280;7231;59.370;18.016;2022-12-29T12:39:07;99060.28;;;5.34;100.00
14295;BME280;7231;59.370;18.016;2022-12-29T12:41:47;99072.44;;;5.35;100.00
14295;BME280;7231;59.370;18.016;2022-12-29T12:44:28;99071.53;;;5.33;100.00
14295;BME280;7231;59.370;18.016;2022-12-29T12:47:39;99061.22;;;5.38;100.00
14295;BME280;7231;59.370;18.016;2022-12-29T12:50:18;99065.59;;;5.40;100.00
14295;BME280;7231;59.370;18.016;2022-12-29T12:53:01;99027.09;;;5.21;100.00
14295;BME280;7231;59.370;18.016;2022-12-29T12:55:47;99068.25;;;5.43;100.00
14295;BME280;7231;59.370;18.016;2022-12-29T12:58:23;99064.78;;;5.43;100.00
14295;BME280;7231;59.370;18.016;2022-12-29T13:01:10;99067.25;;;5.37;100.00
14295;BME280;7231;59.370;18.016;2022-12-29T13:03:50;99047.47;;;5.43;100.00
14295;BME280;7231;59.370;18.016;2022-12-29T13:06:26;99031.78;;;5.39;100.00
14295;BME280;7231;59.370;18.016;2022-12-29T13:09:16;99043.13;;;5.42;100.00
14295;BME280;7231;59.370;18.016;2022-12-29T13:12:04;99040.53;;;5.42;100.00
14295;BME280;7231;59.370;18.016;2022-12-29T13:14:42;99044.81;;;5.40;100.00
14295;BME280;7231;59.370;18.016;2022-12-29T13:17:23;99030.91;;;5.38;100.00
14295;BME280;7231;59.370;18.016;2022-12-29T13:19:59;99030.97;;;5.41;100.00
14295;BME280;7231;59.370;18.016;2022-12-29T13:22:34;99018.84;;;5.42;100.00
14295;BME280;7231;59.370;18.016;2022-12-29T13:25:23;99012.63;;;5.34;100.00
14295;BME280;7231;59.370;18.016;2022-12-29T13:28:00;99024.03;;;5.40;100.00
14295;BME280;7231;59.370;18.016;2022-12-29T13:30:35;99029.22;;;5.40;100.00